createdAt,value
2023-01-18T00:13:23.656Z,60.9
2023-01-18T00:28:58.064Z,61
2023-01-18T00:44:32.403Z,61.2
2023-01-18T01:00:06.856Z,61
2023-01-18T01:15:40.921Z,62
2023-01-18T01:31:15.324Z,62.2
2023-01-18T01:46:49.670Z,62.6
2023-01-18T02:02:24.266Z,62.8
2023-01-18T02:17:58.702Z,62.1
2023-01-18T02:33:33.074Z,62.2
2023-01-18T02:49:07.437Z,62.7
2023-01-18T03:04:41.796Z,62.7
2023-01-18T03:20:16.162Z,63.3
2023-01-18T03:35:50.536Z,63.4
2023-01-18T03:51:24.889Z,63.5
2023-01-18T04:06:59.274Z,63.2
2023-01-18T04:22:36.517Z,63.2
2023-01-18T04:38:10.865Z,63.1
2023-01-18T04:53:45.229Z,63.3
2023-01-18T05:09:19.566Z,64.8
2023-01-18T05:24:56.627Z,65.5
2023-01-18T05:40:31.057Z,65.7
2023-01-18T05:56:05.368Z,66.5
2023-01-18T06:11:39.710Z,66.4
2023-01-18T06:27:14.051Z,66.9
2023-01-18T06:42:48.609Z,66.8
2023-01-18T06:58:23.054Z,66.2
2023-01-18T07:13:57.401Z,66.7
2023-01-18T07:29:31.810Z,66.3
2023-01-18T07:45:06.437Z,66.1
2023-01-18T08:00:40.831Z,66.2
2023-01-18T08:16:15.522Z,66.3
2023-01-18T08:31:50.111Z,66
2023-01-18T08:47:24.539Z,65.6
2023-01-18T09:03:00.777Z,65.6
2023-01-18T09:18:36.116Z,66
2023-01-18T09:34:21.249Z,66.8
2023-01-18T09:49:55.799Z,68.3
2023-01-18T10:05:30.149Z,69.2
2023-01-18T10:21:04.503Z,70
2023-01-18T10:36:38.958Z,70.7
2023-01-18T10:52:13.387Z,69.9
2023-01-18T11:07:47.739Z,70.1
2023-01-18T11:23:22.295Z,70.2
2023-01-18T11:38:56.693Z,68
2023-01-18T11:54:31.154Z,68.3
2023-01-18T12:10:05.585Z,68.4
2023-01-18T12:25:39.947Z,68.7
2023-01-18T12:41:14.373Z,68.5
2023-01-18T12:56:48.867Z,69.5
2023-01-18T13:12:23.220Z,66.4
2023-01-18T13:27:58.750Z,65.9
2023-01-18T13:43:33.935Z,64.7
2023-01-18T13:59:08.358Z,64
2023-01-18T14:14:42.806Z,63.9
2023-01-18T14:30:17.219Z,64
2023-01-18T14:45:51.648Z,63.2
2023-01-18T15:01:26.702Z,64.8
2023-01-18T15:17:01.585Z,65
2023-01-18T15:32:35.939Z,65.5
2023-01-18T15:48:10.332Z,65.8
2023-01-18T16:03:44.773Z,66.8
2023-01-18T16:19:19.177Z,65.6
2023-01-18T16:34:53.585Z,66.4
2023-01-18T16:50:27.975Z,66.5
2023-01-18T17:06:02.503Z,66.3
2023-01-18T17:21:36.829Z,65.6
2023-01-18T17:37:11.196Z,65.6
2023-01-18T17:52:45.716Z,66.5
2023-01-18T18:08:22.282Z,66.4
2023-01-18T18:23:56.667Z,66.4
2023-01-18T18:39:31.110Z,66.3
2023-01-18T18:55:05.452Z,65.7
2023-01-18T19:10:39.874Z,65.7
2023-01-18T19:26:14.219Z,65.4
2023-01-18T19:41:48.624Z,65.1
2023-01-18T19:57:22.979Z,64.1
2023-01-18T20:12:57.799Z,65.2
2023-01-18T20:28:32.931Z,65.7
2023-01-18T20:44:07.275Z,65.9
2023-01-18T20:59:41.741Z,65.4
2023-01-18T21:15:16.052Z,65
2023-01-18T21:30:50.422Z,65.1
2023-01-18T21:46:24.910Z,65.1
2023-01-18T22:02:00.048Z,65
2023-01-18T22:17:34.878Z,65.5
2023-01-18T22:33:09.192Z,64.7
2023-01-18T22:48:43.537Z,65.8
2023-01-18T23:04:17.901Z,65.9
2023-01-18T23:19:52.322Z,65.3
2023-01-18T23:35:26.654Z,65.1
2023-01-18T23:51:01.064Z,65.9
